Portada
METAR-TAF:

METAR-TAF

Aeroports :

Benton Harbor, Michigan, Estats Units d'Amèrica

latitud: 42-07-43N, longitud: 086-25-42W, altitud: 196 m

Observació

L'informe es va fer fa 15 hores i 50 minuts, a les 15:12 UTC
Vent 10 kt del Oest/Sud-Oest
Temperatura 13°C
Humitat 94%
Pressió 1013 hPa
Visibilitat: 3.2 km
Cel cobert a una alçada de 300 ft
boirina

METAR: KBEH 201512Z AUTO 25010KT 2SM BR OVC003 13/12 A2992 RMK AO2 T01330122

Hora: 02:02 (07:02 UTC)


TAF: manca

Observacions i pronòstics meteorològics de més de 4000 aeroports (METAR i TAF).

Les estacions disponibles són els punts grocs i vermells al mapa.

Posi el ratolí al punt desitjat per veure el nom de l'estació.

Feu clic per veure les observacions i els pronòstics meteorològics.

Per canviar el mapa: feu clic els botons verds amb una creu de color negre per apropar; al botó verd amb un guió per allunyar la imatge; o en les fletxes verdes per a mapes adjacents.


METAR-TAF: